Detall de PIREP

Printer-friendly versionPDF version

[2010/08/04 16:31:00]
Flight IATA:CT1004
Pilot Number:042
Company ICAO:CAT
Aircraft Type:B744/E
PAX:350
Departing Airport: LEZL
Destination Airport: LEPA
Alternate Airport:LEBL
Online: VATSIM
Route:VIBAS UM985 YES VLC UN733 GATOS
Flight Level:FL340
No Slew and time accel
No pause
Crash detect
Detect pilot in Cockpit between each 30 and 45 minutes
16:31 Zero fuel Weight: 466689 Lbs, Fuel Weight: 254621 Lbs
16:31 VATSIM:LEZL 041600Z 20010KT 140V240 CAVOK 35/19 Q1010 NOSIG
16:31 VATSIM:LEPA 041600Z 21010KT 190V260 9999 FEW030 SCT055 28/19 Q1012 NOSIG
16:31 VOICE CATALONIAN/SUMMER CHARTER
16:36 Parking Brakes off
16:43 Take-off
16:43 Take off Weight: 718497 Lbs
16:43 Wind: 196 @ 010 Knots Heading: 267
16:43 POS N37 25 04 W005 53 50
16:43 Flaps:4 at 192 Knots
16:43 Gear Up: 193 Knots
16:43 Flaps:3 at 193 Knots
16:43 Flaps:2 at 187 Knots
16:44 Flaps:1 at 18
8 Knots
16:46 Flaps:0 at 253 Knots
16:58 Wind:317@029 Knots Heading: 068 Ground Speed: 510 Knots Altitude 25905 ft
17:09 TOC
17:09 Fuel Weight: 232188 Lb
17:13 Wind:299@011 Knots Heading: 050 Ground Speed: 515 Knots Altitude 33959 ft
17:28 Wind:280@016 Knots Heading: 090 Ground Speed: 522 Knots Altitude 33910 ft
17:28 Gear Down: 302 Knots
17:28 Gear Up: 299 Knots
17:29 TOD
17:29 Fuel Weight: 223737 Lb
17:42 Flaps:1 at 246 Knots
17:43 Wind:295@009 Knots Heading: 070 Ground Speed: 281 Knots Altitude 6958 ft
17:43 Flaps:0 at 246 Knots
17:43 Flaps:1 at 241 Knots
17:50 Flaps:2 at 239 Knots
17:52 Flaps:3 at 197 Knots
17:54 Flaps:4 at 168 Knots
17:57 Flaps:5 at 171 Knots
17:57 Gear Down: 170 Knots
17:57 Flaps:6 at 168 Knots
17:58 Wind:283@003 Knots Heading: 264 Ground Speed: 173 Knots Altitude 4120 ft
18:04 TouchDown:Rate -159 ft/min Speed: 153 Knots
1
8:04 VATSIM:LEPA 041730Z 22012KT 190V250 9999 FEW030 SCT050 27/20 Q1012 NOSIG
18:04 Land
18:04 Wind:214@012 Knots
18:04 Heading: 238
18:04 Flight Duration: 01:21
18:04 Landing Weight: 676248 Lbs
18:04 POS N39 32 50 E002 44 40
18:13 Parking brakes on
18:13 Block to Block Duration: 01:37
18:13 Final Fuel: 207634 Lbls
18:13 Spent Fuel: 46986 Lbls
18:13 Flight Length: 532 NM
18:13 TOD Land Length: 165 NM

Exportar CSV

Powered by Drupal - Modified by Danger4k